Details From HUEN - Entebbe Intl
To HTMW - Mwanza
Flight Number -
Tags Generated
Created
Modified
Stats Distance 152 nm / 282 km
Max Altitude 0 ft / 0 m
Waypoints 2
Social Downloads 0
Likes 0
Share VATSIM

Download

Looking for another format? Having issues loading an existing format? Contact us
Advertisement - Login to hide

Notes

Generated

Route

HUEN HTMW

ID Type Via Altitude Latitude Longitude Leg Dist Tot Dist Heading (true) Name
O HUEN APT - 0 ft / 0 m 0.05123˚ 32.43912˚ - 0 nm - -
O HTMW APT - 0 ft / 0 m -2.43823˚ 32.92012˚ 152 nm 152 nm 169° / 169° -

Altitude Profile

Advertisement - Login to hide

HUEN

Details ICAO HUEN (EBB)
Name ENTEBBE INTL
Region Uganda
Timezone Africa/Kampala (UTC+3.0)
Stats Elevation 3,782 ft / 1,153 m (AMSL)
Location 0.042386° 32.443504°
Runways 2
Magnetic Variation 1.528° E

METAR

Not found

TAF

TAF TAF HUEN 170500Z 1706/1812 26003KT 8000 -TSRA SCT018 FEW020CB OVC100 BECMG 1707/1712 17010KT 9000 -TS FEW024 FEW026CB SCT170 FM171700 23007KT 9999 FEW022 FEW024CB SCT150 BECMG 1721/1724 35006KT FEW020 FEW022CB TEMPO 1801/1806 VRB12KT 8000 TSRA BKN018 FEW020CB BKN100

Decode

Departure Runways

ID Width Length Bearing (true) Bearing (mag) Surface Threshold Offset Overrun Length
12 150 ft / 46 m 8,014 ft / 2,443 m 121.34° 119.81° Asphalt 0 ft / 0 m 0 ft / 0 m
17 150 ft / 46 m 12,073 ft / 3,680 m 171.06° 169.53° Asphalt 0 ft / 0 m 0 ft / 0 m
30 150 ft / 46 m 8,014 ft / 2,443 m 301.34° 299.81° Asphalt 0 ft / 0 m 0 ft / 0 m
35 150 ft / 46 m 12,073 ft / 3,680 m 351.06° 349.53° Asphalt 0 ft / 0 m 0 ft / 0 m

HTMW

Details ICAO HTMW (MWZ)
Name MWANZA
Region Tanzania
Timezone Africa/Dar_es_Salaam (UTC+3.0)
Stats Elevation 3,763 ft / 1,147 m (AMSL)
Location -2.444485° 32.932665°
Runways 1
Magnetic Variation 0.867° E

METAR

HTMW 171300Z 33010KT 9999 FEW026 FEW027CB 28/18 Q1012 NOSIG

Decode

TAF

TAF HTMW 171100Z 1712/1812 32010KT 9999 FEW026 FEW027CB TEMPO 1722/1803 09010KT TSRA SCT019 FEW020 BKN090 BECMG 1810/1812 27010KT NSW

Decode

Destination Runways

ID Width Length Bearing (true) Bearing (mag) Surface Threshold Offset Overrun Length
12 148 ft / 45 m 10,223 ft / 3,116 m 116.54° 115.67° Asphalt 300 ft / 91 m 615 ft / 187 m
30 148 ft / 45 m 10,223 ft / 3,116 m 296.54° 295.67° Asphalt 0 ft / 0 m 0 ft / 0 m

Popular Alternatives